createdAt,value
2023-05-06T00:00:58.331Z,95143.00
2023-05-06T00:01:58.382Z,95139.00
2023-05-06T00:02:58.464Z,95137.00
2023-05-06T00:03:58.575Z,95135.00
2023-05-06T00:04:58.412Z,95135.00
2023-05-06T00:05:58.366Z,95133.00
2023-05-06T00:06:58.409Z,95133.00
2023-05-06T00:07:58.924Z,95133.00
2023-05-06T00:08:58.449Z,95131.00
2023-05-06T00:09:58.433Z,95133.00
2023-05-06T00:10:58.452Z,95133.00
2023-05-06T00:11:58.424Z,95133.00
2023-05-06T00:12:58.918Z,95133.00
2023-05-06T00:13:58.542Z,95131.00
2023-05-06T00:14:58.509Z,95131.00
2023-05-06T00:15:58.646Z,95131.00
2023-05-06T00:16:58.540Z,95131.00
2023-05-06T00:17:58.941Z,95131.00
2023-05-06T00:18:58.571Z,95131.00
2023-05-06T00:19:58.576Z,95131.00
2023-05-06T00:20:58.613Z,95129.00
2023-05-06T00:21:58.639Z,95129.00
2023-05-06T00:22:58.665Z,95128.00
2023-05-06T00:23:58.638Z,95128.00
2023-05-06T00:24:58.665Z,95124.00
2023-05-06T00:25:58.653Z,95124.00
2023-05-06T00:26:58.705Z,95118.00
2023-05-06T00:27:58.699Z,95120.00
2023-05-06T00:28:58.774Z,95120.00
2023-05-06T00:29:58.815Z,95122.00
2023-05-06T00:30:58.799Z,95120.00
2023-05-06T00:31:58.858Z,95120.00
2023-05-06T00:32:58.854Z,95116.00
2023-05-06T00:33:58.774Z,95114.00
2023-05-06T00:34:58.820Z,95112.00
2023-05-06T00:35:58.794Z,95114.00
2023-05-06T00:36:58.829Z,95114.00
2023-05-06T00:37:58.845Z,95114.00
2023-05-06T00:38:58.850Z,95112.00
2023-05-06T00:39:58.824Z,95112.00
2023-05-06T00:40:58.831Z,95110.00
2023-05-06T00:41:58.832Z,95110.00
2023-05-06T00:42:58.903Z,95108.00
2023-05-06T00:43:58.882Z,95106.00
2023-05-06T00:44:58.884Z,95106.00
2023-05-06T00:45:58.956Z,95106.00
2023-05-06T00:46:58.906Z,95106.00
2023-05-06T00:47:58.999Z,95106.00
2023-05-06T00:48:58.932Z,95104.00
2023-05-06T00:49:58.944Z,95102.00
2023-05-06T00:50:58.950Z,95102.00
2023-05-06T00:51:59.004Z,95100.00
2023-05-06T00:52:59.017Z,95102.00
2023-05-06T00:53:59.031Z,95100.00
2023-05-06T00:54:59.031Z,95098.00
2023-05-06T00:55:59.091Z,95094.00
2023-05-06T00:56:59.117Z,95094.00
2023-05-06T00:57:59.121Z,95096.00
2023-05-06T00:58:59.137Z,95094.00
2023-05-06T00:59:59.172Z,95094.00
2023-05-06T01:00:59.193Z,95094.00
2023-05-06T01:01:59.284Z,95094.00
2023-05-06T01:02:59.290Z,95094.00
2023-05-06T01:03:59.384Z,95096.00
2023-05-06T01:04:59.306Z,95096.00
2023-05-06T01:05:59.271Z,95096.00
2023-05-06T01:06:59.302Z,95094.00
2023-05-06T01:07:59.332Z,95090.00
2023-05-06T01:08:59.326Z,95090.00
2023-05-06T01:09:59.369Z,95089.00
2023-05-06T01:10:59.365Z,95087.00
2023-05-06T01:11:59.383Z,95087.00
2023-05-06T01:12:59.371Z,95087.00
2023-05-06T01:13:59.376Z,95087.00
2023-05-06T01:14:59.372Z,95087.00
2023-05-06T01:15:59.414Z,95085.00
2023-05-06T01:16:59.430Z,95087.00
2023-05-06T01:17:59.461Z,95087.00
2023-05-06T01:18:59.432Z,95087.00
2023-05-06T01:19:59.476Z,95089.00
2023-05-06T01:20:59.431Z,95087.00
2023-05-06T01:21:59.452Z,95087.00
2023-05-06T01:22:59.473Z,95087.00
2023-05-06T01:23:59.469Z,95087.00
2023-05-06T01:24:59.471Z,95085.00
2023-05-06T01:25:59.482Z,95087.00
2023-05-06T01:26:59.494Z,95089.00
2023-05-06T01:27:59.496Z,95089.00
2023-05-06T01:28:59.524Z,95090.00
2023-05-06T01:29:59.496Z,95089.00
2023-05-06T01:30:59.572Z,95087.00
2023-05-06T01:31:59.505Z,95087.00
2023-05-06T01:32:59.531Z,95085.00
2023-05-06T01:33:59.584Z,95087.00
2023-05-06T01:34:59.525Z,95085.00
2023-05-06T01:35:59.519Z,95089.00
2023-05-06T01:36:59.535Z,95089.00
2023-05-06T01:37:59.582Z,95087.00
2023-05-06T01:38:59.556Z,95089.00
2023-05-06T01:39:59.543Z,95090.00
2023-05-06T01:40:59.561Z,95089.00
2023-05-06T01:41:59.600Z,95089.00
2023-05-06T01:42:59.641Z,95087.00
2023-05-06T01:43:59.620Z,95087.00
2023-05-06T01:44:59.620Z,95089.00
2023-05-06T01:45:59.642Z,95089.00
2023-05-06T01:46:59.587Z,95089.00
2023-05-06T01:47:59.670Z,95090.00
2023-05-06T01:48:59.616Z,95090.00
2023-05-06T01:49:59.622Z,95090.00
2023-05-06T01:50:59.611Z,95092.00
2023-05-06T01:51:59.649Z,95092.00
2023-05-06T01:52:59.665Z,95092.00
2023-05-06T01:53:59.633Z,95092.00
2023-05-06T01:54:59.612Z,95090.00
2023-05-06T01:55:59.646Z,95090.00
2023-05-06T01:56:59.661Z,95092.00
2023-05-06T01:57:59.668Z,95094.00
2023-05-06T01:58:59.923Z,95094.00
2023-05-06T01:59:59.667Z,95094.00
2023-05-06T02:00:59.681Z,95092.00
2023-05-06T02:01:59.824Z,95094.00
2023-05-06T02:02:59.729Z,95092.00
2023-05-06T02:03:59.816Z,95092.00
2023-05-06T02:04:59.660Z,95096.00
2023-05-06T02:05:59.758Z,95090.00
2023-05-06T02:06:59.684Z,95094.00
2023-05-06T02:07:59.668Z,95092.00
2023-05-06T02:08:59.684Z,95096.00
2023-05-06T02:09:59.713Z,95090.00
2023-05-06T02:10:59.667Z,95092.00
2023-05-06T02:11:59.691Z,95092.00
2023-05-06T02:12:59.770Z,95092.00
2023-05-06T02:13:59.677Z,95089.00
2023-05-06T02:14:59.691Z,95087.00
2023-05-06T02:15:59.788Z,95087.00
2023-05-06T02:16:59.685Z,95085.00
2023-05-06T02:17:59.731Z,95087.00
2023-05-06T02:18:59.701Z,95085.00
2023-05-06T02:19:59.697Z,95085.00
2023-05-06T02:20:59.697Z,95085.00
2023-05-06T02:21:59.741Z,95085.00
2023-05-06T02:22:59.947Z,95085.00
2023-05-06T02:23:59.745Z,95085.00
2023-05-06T02:24:59.748Z,95085.00
2023-05-06T02:25:59.749Z,95085.00
2023-05-06T02:26:59.782Z,95087.00
2023-05-06T02:27:59.778Z,95087.00
2023-05-06T02:28:59.775Z,95089.00
2023-05-06T02:29:59.785Z,95087.00
2023-05-06T02:30:59.858Z,95089.00
2023-05-06T02:31:59.869Z,95085.00
2023-05-06T02:32:59.994Z,95087.00
2023-05-06T02:33:59.821Z,95083.00
2023-05-06T02:34:59.836Z,95081.00
2023-05-06T02:35:59.801Z,95079.00
2023-05-06T02:36:59.832Z,95079.00
2023-05-06T02:37:59.916Z,95079.00
2023-05-06T02:38:59.816Z,95079.00
2023-05-06T02:39:59.850Z,95077.00
2023-05-06T02:40:59.839Z,95077.00
2023-05-06T02:41:59.888Z,95075.00
2023-05-06T02:42:59.902Z,95073.00
2023-05-06T02:43:59.908Z,95073.00
2023-05-06T02:44:59.886Z,95073.00
2023-05-06T02:45:59.940Z,95071.00
2023-05-06T02:46:59.860Z,95069.00
2023-05-06T02:47:59.929Z,95069.00
2023-05-06T02:48:59.824Z,95071.00
2023-05-06T02:49:59.825Z,95073.00
2023-05-06T02:50:59.905Z,95075.00
2023-05-06T02:51:59.840Z,95077.00
2023-05-06T02:52:59.829Z,95077.00
2023-05-06T02:54:00.165Z,95077.00
2023-05-06T02:54:59.852Z,95077.00
2023-05-06T02:55:59.861Z,95073.00
2023-05-06T02:56:59.855Z,95073.00
2023-05-06T02:57:59.871Z,95073.00
2023-05-06T02:58:59.861Z,95073.00
2023-05-06T02:59:59.895Z,95075.00
2023-05-06T03:00:59.887Z,95071.00
2023-05-06T03:01:59.852Z,95071.00
2023-05-06T03:02:59.927Z,95071.00
2023-05-06T03:03:59.860Z,95071.00
2023-05-06T03:04:59.818Z,95071.00
2023-05-06T03:05:59.888Z,95071.00
2023-05-06T03:06:59.847Z,95073.00
2023-05-06T03:07:59.855Z,95073.00
2023-05-06T03:08:59.814Z,95073.00
2023-05-06T03:09:59.830Z,95075.00
2023-05-06T03:10:59.837Z,95075.00
2023-05-06T03:11:59.853Z,95073.00
2023-05-06T03:12:59.868Z,95075.00
2023-05-06T03:13:59.830Z,95071.00
2023-05-06T03:14:59.843Z,95071.00
2023-05-06T03:15:59.844Z,95069.00
2023-05-06T03:16:59.882Z,95071.00
2023-05-06T03:17:59.835Z,95071.00
2023-05-06T03:18:59.794Z,95073.00
2023-05-06T03:19:59.795Z,95073.00
2023-05-06T03:20:59.845Z,95073.00
2023-05-06T03:21:59.793Z,95073.00
2023-05-06T03:22:59.785Z,95073.00
2023-05-06T03:23:59.801Z,95071.00
2023-05-06T03:24:59.778Z,95071.00
2023-05-06T03:25:59.965Z,95071.00
2023-05-06T03:26:59.793Z,95071.00
2023-05-06T03:27:59.773Z,95069.00
2023-05-06T03:28:59.762Z,95069.00
2023-05-06T03:29:59.779Z,95067.00
2023-05-06T03:30:59.772Z,95067.00
2023-05-06T03:31:59.821Z,95067.00
2023-05-06T03:32:59.790Z,95069.00
2023-05-06T03:33:59.756Z,95071.00
2023-05-06T03:34:59.735Z,95071.00
2023-05-06T03:35:59.744Z,95069.00
2023-05-06T03:36:59.731Z,95069.00
2023-05-06T03:37:59.737Z,95067.00
2023-05-06T03:38:59.750Z,95063.00
2023-05-06T03:39:59.745Z,95057.00
2023-05-06T03:40:59.728Z,95061.00
2023-05-06T03:41:59.776Z,95059.00
2023-05-06T03:42:59.730Z,95061.00
2023-05-06T03:43:59.703Z,95063.00
2023-05-06T03:44:59.711Z,95065.00
2023-05-06T03:45:59.721Z,95061.00
2023-05-06T03:46:59.719Z,95059.00
2023-05-06T03:47:59.710Z,95063.00
2023-05-06T03:48:59.728Z,95065.00
2023-05-06T03:49:59.715Z,95065.00
2023-05-06T03:50:59.753Z,95061.00
2023-05-06T03:51:59.704Z,95069.00
2023-05-06T03:52:59.741Z,95067.00
2023-05-06T03:53:59.721Z,95067.00
2023-05-06T03:54:59.705Z,95067.00
2023-05-06T03:55:59.697Z,95073.00
2023-05-06T03:56:59.680Z,95063.00
2023-05-06T03:57:59.835Z,95065.00
2023-05-06T03:58:59.742Z,95063.00
2023-05-06T03:59:59.721Z,95063.00
2023-05-06T04:00:59.676Z,95065.00
2023-05-06T04:01:59.750Z,95071.00
2023-05-06T04:02:59.742Z,95067.00
2023-05-06T04:03:59.826Z,95069.00
2023-05-06T04:04:59.703Z,95079.00
2023-05-06T04:05:59.687Z,95075.00
2023-05-06T04:06:59.684Z,95081.00
2023-05-06T04:07:59.697Z,95079.00
2023-05-06T04:08:59.706Z,95081.00
2023-05-06T04:09:59.659Z,95083.00
2023-05-06T04:10:59.680Z,95083.00
2023-05-06T04:11:59.688Z,95090.00
2023-05-06T04:12:59.753Z,95092.00
2023-05-06T04:13:59.831Z,95090.00
2023-05-06T04:14:59.675Z,95100.00
2023-05-06T04:15:59.661Z,95100.00
2023-05-06T04:16:59.653Z,95104.00
2023-05-06T04:17:59.680Z,95108.00
2023-05-06T04:18:59.677Z,95112.00
2023-05-06T04:19:59.649Z,95114.00
2023-05-06T04:20:59.630Z,95114.00
2023-05-06T04:21:59.639Z,95116.00
2023-05-06T04:22:59.676Z,95116.00
2023-05-06T04:23:59.656Z,95116.00
2023-05-06T04:24:59.674Z,95114.00
2023-05-06T04:25:59.645Z,95112.00
2023-05-06T04:26:59.677Z,95112.00
2023-05-06T04:27:59.659Z,95112.00
2023-05-06T04:28:59.653Z,95112.00
2023-05-06T04:29:59.709Z,95112.00
2023-05-06T04:30:59.663Z,95112.00
2023-05-06T04:31:59.770Z,95108.00
2023-05-06T04:32:59.687Z,95104.00
2023-05-06T04:33:59.647Z,95104.00
2023-05-06T04:34:59.655Z,95100.00
2023-05-06T04:35:59.628Z,95102.00
2023-05-06T04:36:59.629Z,95104.00
2023-05-06T04:37:59.644Z,95104.00
2023-05-06T04:38:59.609Z,95104.00
2023-05-06T04:39:59.610Z,95104.00
2023-05-06T04:40:59.660Z,95108.00
2023-05-06T04:41:59.612Z,95106.00
2023-05-06T04:42:59.607Z,95108.00
2023-05-06T04:43:59.615Z,95108.00
2023-05-06T04:44:59.600Z,95108.00
2023-05-06T04:45:59.622Z,95106.00
2023-05-06T04:46:59.610Z,95108.00
2023-05-06T04:47:59.637Z,95112.00
2023-05-06T04:48:59.602Z,95114.00
2023-05-06T04:49:59.599Z,95116.00
2023-05-06T04:50:59.591Z,95112.00
2023-05-06T04:51:59.558Z,95114.00
2023-05-06T04:52:59.637Z,95108.00
2023-05-06T04:53:59.591Z,95108.00
2023-05-06T04:54:59.632Z,95106.00
2023-05-06T04:55:59.599Z,95106.00
2023-05-06T04:56:59.589Z,95106.00
2023-05-06T04:57:59.564Z,95108.00
2023-05-06T04:58:59.542Z,95108.00
2023-05-06T04:59:59.586Z,95108.00
2023-05-06T05:00:59.618Z,95110.00
2023-05-06T05:01:59.685Z,95108.00
2023-05-06T05:02:59.631Z,95112.00
2023-05-06T05:03:59.544Z,95114.00
2023-05-06T05:04:59.564Z,95116.00
2023-05-06T05:05:59.565Z,95116.00
2023-05-06T05:06:59.571Z,95118.00
2023-05-06T05:07:59.543Z,95118.00
2023-05-06T05:08:59.812Z,95118.00
2023-05-06T05:09:59.561Z,95118.00
2023-05-06T05:10:59.524Z,95118.00
2023-05-06T05:11:59.536Z,95118.00
2023-05-06T05:12:59.544Z,95118.00
2023-05-06T05:14:01.048Z,95118.00
2023-05-06T05:14:59.719Z,95118.00
2023-05-06T05:15:59.757Z,95116.00
2023-05-06T05:16:59.766Z,95112.00
2023-05-06T05:17:59.842Z,95112.00
2023-05-06T05:19:02.151Z,95114.00
2023-05-06T05:19:59.706Z,95116.00
2023-05-06T05:20:59.700Z,95118.00
2023-05-06T05:21:59.715Z,95120.00
2023-05-06T05:22:59.686Z,95124.00
2023-05-06T05:23:59.697Z,95126.00
2023-05-06T05:24:59.667Z,95128.00
2023-05-06T05:25:59.680Z,95128.00
2023-05-06T05:26:59.662Z,95128.00
2023-05-06T05:27:59.650Z,95126.00
2023-05-06T05:28:59.646Z,95129.00
2023-05-06T05:29:59.665Z,95129.00
2023-05-06T05:30:59.664Z,95129.00
2023-05-06T05:31:59.647Z,95129.00
2023-05-06T05:32:59.766Z,95129.00
2023-05-06T05:33:59.680Z,95128.00
2023-05-06T05:34:59.606Z,95128.00
2023-05-06T05:35:59.611Z,95126.00
2023-05-06T05:36:59.613Z,95124.00
2023-05-06T05:37:59.565Z,95126.00
2023-05-06T05:38:59.605Z,95124.00
2023-05-06T05:39:59.629Z,95124.00
2023-05-06T05:40:59.572Z,95122.00
2023-05-06T05:41:59.531Z,95124.00
2023-05-06T05:42:59.541Z,95124.00
2023-05-06T05:43:59.531Z,95124.00
2023-05-06T05:44:59.526Z,95124.00
2023-05-06T05:45:59.570Z,95124.00
2023-05-06T05:46:59.515Z,95122.00
2023-05-06T05:47:59.566Z,95122.00
2023-05-06T05:48:59.517Z,95118.00
2023-05-06T05:49:59.563Z,95114.00
2023-05-06T05:50:59.502Z,95110.00
2023-05-06T05:51:59.478Z,95106.00
2023-05-06T05:52:59.510Z,95116.00
2023-05-06T05:53:59.481Z,95122.00
2023-05-06T05:54:59.446Z,95124.00
2023-05-06T05:55:59.456Z,95124.00
2023-05-06T05:56:59.484Z,95120.00
2023-05-06T05:57:59.459Z,95114.00
2023-05-06T05:58:59.454Z,95108.00
2023-05-06T05:59:59.447Z,95106.00
2023-05-06T06:00:59.445Z,95106.00
2023-05-06T06:01:59.409Z,95106.00
2023-05-06T06:02:59.486Z,95106.00
2023-05-06T06:03:59.610Z,95108.00
2023-05-06T06:04:59.565Z,95112.00
2023-05-06T06:06:00.272Z,95112.00
2023-05-06T06:06:59.379Z,95116.00
2023-05-06T06:07:59.987Z,95114.00
2023-05-06T06:08:59.385Z,95114.00
2023-05-06T06:09:59.360Z,95114.00
2023-05-06T06:10:59.353Z,95112.00
2023-05-06T06:11:59.351Z,95112.00
2023-05-06T06:12:59.358Z,95108.00
2023-05-06T06:13:59.349Z,95110.00
2023-05-06T06:14:59.323Z,95110.00
2023-05-06T06:15:59.527Z,95112.00
2023-05-06T06:16:59.341Z,95112.00
2023-05-06T06:17:59.378Z,95114.00
2023-05-06T06:18:59.322Z,95118.00
2023-05-06T06:19:59.314Z,95118.00
2023-05-06T06:20:59.291Z,95118.00
2023-05-06T06:21:59.304Z,95120.00
2023-05-06T06:22:59.314Z,95116.00
2023-05-06T06:23:59.276Z,95118.00
2023-05-06T06:24:59.253Z,95122.00
2023-05-06T06:25:59.246Z,95124.00
2023-05-06T06:26:59.255Z,95122.00
2023-05-06T06:27:59.237Z,95122.00
2023-05-06T06:28:59.257Z,95116.00
2023-05-06T06:29:59.209Z,95116.00
2023-05-06T06:30:59.236Z,95114.00
2023-05-06T06:31:59.309Z,95114.00
2023-05-06T06:32:59.265Z,95108.00
2023-05-06T06:33:59.208Z,95106.00
2023-05-06T06:34:59.192Z,95104.00
2023-05-06T06:35:59.213Z,95106.00
2023-05-06T06:36:59.183Z,95106.00
2023-05-06T06:37:59.245Z,95106.00
2023-05-06T06:38:59.167Z,95110.00
2023-05-06T06:39:59.162Z,95106.00
2023-05-06T06:40:59.155Z,95106.00
2023-05-06T06:41:59.168Z,95106.00
2023-05-06T06:42:59.137Z,95104.00
2023-05-06T06:43:59.150Z,95102.00
2023-05-06T06:44:59.126Z,95102.00
2023-05-06T06:45:59.132Z,95102.00
2023-05-06T06:46:59.110Z,95100.00
2023-05-06T06:47:59.191Z,95100.00
2023-05-06T06:48:59.540Z,95102.00
2023-05-06T06:49:59.055Z,95102.00
2023-05-06T06:50:59.078Z,95102.00
2023-05-06T06:51:59.070Z,95102.00
2023-05-06T06:52:59.073Z,95102.00
2023-05-06T06:53:59.175Z,95100.00
2023-05-06T06:54:59.057Z,95100.00
2023-05-06T06:55:59.033Z,95098.00
2023-05-06T06:56:59.017Z,95100.00
2023-05-06T06:57:59.006Z,95098.00
2023-05-06T06:58:59.062Z,95100.00
2023-05-06T06:59:58.997Z,95100.00
2023-05-06T07:00:59.062Z,95102.00
2023-05-06T07:01:58.988Z,95102.00
2023-05-06T07:02:59.080Z,95098.00
2023-05-06T07:03:59.053Z,95098.00
2023-05-06T07:04:58.997Z,95100.00
2023-05-06T07:05:58.970Z,95096.00
2023-05-06T07:06:58.951Z,95094.00
2023-05-06T07:07:58.946Z,95092.00
2023-05-06T07:08:58.951Z,95090.00
2023-05-06T07:09:59.162Z,95094.00
2023-05-06T07:10:59.033Z,95090.00
2023-05-06T07:11:59.040Z,95089.00
2023-05-06T07:12:59.094Z,95090.00
2023-05-06T07:13:59.156Z,95096.00
2023-05-06T07:14:59.192Z,95092.00
2023-05-06T07:15:59.238Z,95094.00
2023-05-06T07:16:59.316Z,95090.00
2023-05-06T07:17:59.427Z,95090.00
2023-05-06T07:18:59.432Z,95087.00
2023-05-06T07:19:59.442Z,95089.00
2023-05-06T07:20:59.510Z,95089.00
2023-05-06T07:21:59.543Z,95087.00
2023-05-06T07:22:59.627Z,95087.00
2023-05-06T07:23:59.672Z,95087.00
2023-05-06T07:24:59.754Z,95087.00
2023-05-06T07:25:59.898Z,95087.00
2023-05-06T07:26:59.834Z,95087.00
2023-05-06T07:27:59.917Z,95085.00
2023-05-06T07:29:00.008Z,95085.00
2023-05-06T07:30:00.097Z,95085.00
2023-05-06T07:31:00.134Z,95087.00
2023-05-06T07:32:00.198Z,95083.00
2023-05-06T07:33:00.359Z,95085.00
2023-05-06T07:34:00.322Z,95085.00
2023-05-06T07:35:00.379Z,95085.00
2023-05-06T07:36:00.411Z,95083.00
2023-05-06T07:37:00.483Z,95087.00
2023-05-06T07:38:00.575Z,95087.00
2023-05-06T07:39:00.601Z,95081.00
2023-05-06T07:40:00.651Z,95083.00
2023-05-06T07:41:00.717Z,95081.00
2023-05-06T07:42:00.982Z,95079.00
2023-05-06T07:43:00.836Z,95077.00
2023-05-06T07:44:00.894Z,95079.00
2023-05-06T07:45:00.911Z,95079.00
2023-05-06T07:46:00.959Z,95077.00
2023-05-06T07:47:01.089Z,95079.00
2023-05-06T07:48:01.078Z,95077.00
2023-05-06T07:49:01.114Z,95077.00
2023-05-06T07:50:01.136Z,95077.00
2023-05-06T07:51:01.159Z,95079.00
2023-05-06T07:52:01.210Z,95079.00
2023-05-06T07:53:01.251Z,95081.00
2023-05-06T07:54:01.280Z,95079.00
2023-05-06T07:55:01.334Z,95077.00
2023-05-06T07:56:01.360Z,95079.00
2023-05-06T07:57:01.360Z,95075.00
2023-05-06T07:58:01.422Z,95075.00
2023-05-06T07:59:01.462Z,95075.00
2023-05-06T08:00:01.506Z,95075.00
2023-05-06T08:01:01.540Z,95073.00
2023-05-06T08:02:01.752Z,95071.00
2023-05-06T08:03:01.768Z,95075.00
2023-05-06T08:04:01.809Z,95073.00
2023-05-06T08:05:01.693Z,95075.00
2023-05-06T08:06:01.752Z,95073.00
2023-05-06T08:07:01.781Z,95071.00
2023-05-06T08:08:01.812Z,95073.00
2023-05-06T08:09:01.897Z,95073.00
2023-05-06T08:10:01.927Z,95071.00
2023-05-06T08:11:02.034Z,95071.00
2023-05-06T08:12:02.029Z,95069.00
2023-05-06T08:13:02.090Z,95069.00
2023-05-06T08:14:02.190Z,95067.00
2023-05-06T08:15:02.203Z,95069.00
2023-05-06T08:16:02.364Z,95071.00
2023-05-06T08:17:02.271Z,95073.00
2023-05-06T08:18:13.740Z,95071.00
2023-05-06T08:19:03.259Z,95073.00
2023-05-06T08:20:02.284Z,95077.00
2023-05-06T08:21:02.299Z,95079.00
2023-05-06T08:22:02.254Z,95079.00
2023-05-06T08:23:02.266Z,95079.00
2023-05-06T08:24:02.254Z,95083.00
2023-05-06T08:25:02.267Z,95081.00
2023-05-06T08:26:02.240Z,95081.00
2023-05-06T08:27:02.231Z,95081.00
2023-05-06T08:28:02.250Z,95079.00
2023-05-06T08:29:02.211Z,95081.00
2023-05-06T08:30:02.211Z,95081.00
2023-05-06T08:31:02.220Z,95081.00
2023-05-06T08:32:02.260Z,95085.00
2023-05-06T08:33:02.253Z,95083.00
2023-05-06T08:34:02.180Z,95085.00
2023-05-06T08:35:02.215Z,95085.00
2023-05-06T08:36:02.229Z,95083.00
2023-05-06T08:37:02.245Z,95081.00
2023-05-06T08:38:02.251Z,95083.00
2023-05-06T08:39:02.568Z,95081.00
2023-05-06T08:40:02.325Z,95081.00
2023-05-06T08:41:02.380Z,95083.00
2023-05-06T08:42:02.381Z,95087.00
2023-05-06T08:43:02.455Z,95083.00
2023-05-06T08:44:02.489Z,95083.00
2023-05-06T08:45:02.512Z,95085.00
2023-05-06T08:46:02.723Z,95087.00
2023-05-06T08:47:02.578Z,95089.00
2023-05-06T08:48:02.638Z,95085.00
2023-05-06T08:49:02.666Z,95087.00
2023-05-06T08:50:02.744Z,95089.00
2023-05-06T08:51:02.741Z,95090.00
2023-05-06T08:52:02.820Z,95087.00
2023-05-06T08:53:02.817Z,95087.00
2023-05-06T08:54:02.858Z,95085.00
2023-05-06T08:55:02.912Z,95083.00
2023-05-06T08:56:02.954Z,95087.00
2023-05-06T08:57:02.935Z,95085.00
2023-05-06T08:58:03.000Z,95089.00
2023-05-06T08:59:03.017Z,95087.00
2023-05-06T09:00:03.078Z,95089.00
2023-05-06T09:01:03.338Z,95087.00
2023-05-06T09:02:03.273Z,95085.00
2023-05-06T09:03:03.200Z,95089.00
2023-05-06T09:04:03.211Z,95089.00
2023-05-06T09:05:03.266Z,95094.00
2023-05-06T09:06:03.281Z,95096.00
2023-05-06T09:07:03.316Z,95094.00
2023-05-06T09:08:03.349Z,95100.00
2023-05-06T09:09:03.388Z,95096.00
2023-05-06T09:10:03.380Z,95098.00
2023-05-06T09:11:03.436Z,95098.00
2023-05-06T09:12:03.476Z,95098.00
2023-05-06T09:13:03.574Z,95096.00
2023-05-06T09:14:03.550Z,95098.00
2023-05-06T09:15:03.616Z,95096.00
2023-05-06T09:16:03.595Z,95092.00
2023-05-06T09:17:03.703Z,95092.00
2023-05-06T09:18:03.800Z,95092.00
2023-05-06T09:19:03.720Z,95096.00
2023-05-06T09:20:03.787Z,95096.00
2023-05-06T09:21:03.842Z,95094.00
2023-05-06T09:22:03.842Z,95094.00
2023-05-06T09:23:03.912Z,95090.00
2023-05-06T09:24:03.998Z,95089.00
2023-05-06T09:25:04.021Z,95089.00
2023-05-06T09:26:04.055Z,95085.00
2023-05-06T09:27:04.120Z,95085.00
2023-05-06T09:28:04.146Z,95085.00
2023-05-06T09:29:04.209Z,95087.00
2023-05-06T09:30:04.259Z,95085.00
2023-05-06T09:31:04.357Z,95085.00
2023-05-06T09:32:04.321Z,95085.00
2023-05-06T09:33:04.405Z,95081.00
2023-05-06T09:34:04.445Z,95081.00
2023-05-06T09:35:04.498Z,95081.00
2023-05-06T09:36:04.522Z,95083.00
2023-05-06T09:37:04.627Z,95085.00
2023-05-06T09:38:07.066Z,95087.00
2023-05-06T09:39:05.062Z,95079.00
2023-05-06T09:40:04.942Z,95085.00
2023-05-06T09:41:05.039Z,95081.00
2023-05-06T09:42:05.055Z,95085.00
2023-05-06T09:43:05.173Z,95087.00
2023-05-06T09:44:05.192Z,95083.00
2023-05-06T09:45:05.205Z,95083.00
2023-05-06T09:46:05.284Z,95081.00
2023-05-06T09:47:05.323Z,95079.00
2023-05-06T09:48:05.457Z,95081.00
2023-05-06T09:49:05.479Z,95083.00
2023-05-06T09:50:05.501Z,95083.00
2023-05-06T09:51:05.567Z,95083.00
2023-05-06T09:52:05.631Z,95081.00
2023-05-06T09:53:05.690Z,95079.00
2023-05-06T09:54:05.748Z,95081.00
2023-05-06T09:55:05.788Z,95081.00
2023-05-06T09:56:05.890Z,95083.00
2023-05-06T09:57:05.948Z,95077.00
2023-05-06T09:58:06.000Z,95081.00
2023-05-06T09:59:06.072Z,95077.00
2023-05-06T10:00:06.123Z,95079.00
2023-05-06T10:01:06.147Z,95079.00
2023-05-06T10:02:06.250Z,95081.00
2023-05-06T10:03:06.450Z,95081.00
2023-05-06T10:04:06.514Z,95077.00
2023-05-06T10:05:06.558Z,95079.00
2023-05-06T10:06:06.576Z,95077.00
2023-05-06T10:07:06.530Z,95077.00
2023-05-06T10:08:06.581Z,95073.00
2023-05-06T10:09:06.618Z,95073.00
2023-05-06T10:10:06.693Z,95071.00
2023-05-06T10:11:06.722Z,95069.00
2023-05-06T10:12:06.795Z,95067.00
2023-05-06T10:13:06.912Z,95071.00
2023-05-06T10:14:06.989Z,95067.00
2023-05-06T10:15:07.032Z,95065.00
2023-05-06T10:16:07.083Z,95067.00
2023-05-06T10:17:07.099Z,95065.00
2023-05-06T10:18:07.167Z,95065.00
2023-05-06T10:19:07.237Z,95059.00
2023-05-06T10:20:07.260Z,95055.00
2023-05-06T10:21:07.312Z,95055.00
2023-05-06T10:22:07.498Z,95055.00
2023-05-06T10:23:07.412Z,95053.00
2023-05-06T10:24:07.482Z,95055.00
2023-05-06T10:25:07.660Z,95053.00
2023-05-06T10:26:07.557Z,95053.00
2023-05-06T10:27:07.611Z,95051.00
2023-05-06T10:28:08.483Z,95049.00
2023-05-06T10:29:08.642Z,95051.00
2023-05-06T10:30:07.644Z,95047.00
2023-05-06T10:31:07.655Z,95045.00
2023-05-06T10:32:07.701Z,95043.00
2023-05-06T10:33:08.042Z,95041.00
2023-05-06T10:34:07.633Z,95045.00
2023-05-06T10:35:07.663Z,95043.00
2023-05-06T10:36:07.614Z,95041.00
2023-05-06T10:37:07.566Z,95041.00
2023-05-06T10:38:07.690Z,95039.00
2023-05-06T10:39:07.606Z,95043.00
2023-05-06T10:40:07.622Z,95041.00
2023-05-06T10:41:07.675Z,95041.00
2023-05-06T10:42:07.743Z,95039.00
2023-05-06T10:43:07.747Z,95037.00
2023-05-06T10:44:08.093Z,95037.00
2023-05-06T10:45:07.948Z,95035.00
2023-05-06T10:46:08.051Z,95035.00
2023-05-06T10:47:07.945Z,95034.00
2023-05-06T10:48:08.023Z,95034.00
2023-05-06T10:49:08.067Z,95035.00
2023-05-06T10:50:08.122Z,95032.00
2023-05-06T10:51:08.184Z,95028.00
2023-05-06T10:52:08.252Z,95030.00
2023-05-06T10:53:08.295Z,95026.00
2023-05-06T10:54:08.415Z,95024.00
2023-05-06T10:55:08.633Z,95026.00
2023-05-06T10:56:08.464Z,95026.00
2023-05-06T10:57:08.512Z,95024.00
2023-05-06T10:58:08.573Z,95026.00
2023-05-06T10:59:08.628Z,95024.00
2023-05-06T11:00:08.644Z,95020.00
2023-05-06T11:01:08.744Z,95022.00
2023-05-06T11:02:08.803Z,95022.00
2023-05-06T11:03:08.899Z,95020.00
2023-05-06T11:04:09.093Z,95020.00
2023-05-06T11:05:09.081Z,95020.00
2023-05-06T11:06:09.015Z,95020.00
2023-05-06T11:07:09.089Z,95018.00
2023-05-06T11:08:09.163Z,95020.00
2023-05-06T11:09:09.214Z,95016.00
2023-05-06T11:10:09.297Z,95014.00
2023-05-06T11:11:09.274Z,95014.00
2023-05-06T11:12:09.376Z,95014.00
2023-05-06T11:13:09.428Z,95012.00
2023-05-06T11:14:09.486Z,95012.00
2023-05-06T11:15:09.725Z,95012.00
2023-05-06T11:16:09.608Z,95012.00
2023-05-06T11:17:09.814Z,95012.00
2023-05-06T11:18:09.717Z,95010.00
2023-05-06T11:19:09.743Z,95010.00
2023-05-06T11:20:09.959Z,95010.00
2023-05-06T11:21:09.879Z,95012.00
2023-05-06T11:22:09.910Z,95012.00
2023-05-06T11:23:09.981Z,95012.00
2023-05-06T11:24:10.141Z,95010.00
2023-05-06T11:25:10.114Z,95010.00
2023-05-06T11:26:10.151Z,95012.00
2023-05-06T11:27:10.211Z,95012.00
2023-05-06T11:28:10.252Z,95010.00
2023-05-06T11:29:10.355Z,95010.00
2023-05-06T11:30:10.530Z,95008.00
2023-05-06T11:31:10.567Z,95010.00
2023-05-06T11:32:10.460Z,95010.00
2023-05-06T11:33:10.656Z,95010.00
2023-05-06T11:34:10.572Z,95008.00
2023-05-06T11:35:10.648Z,95010.00
2023-05-06T11:36:10.672Z,95012.00
2023-05-06T11:37:10.752Z,95008.00
2023-05-06T11:38:10.917Z,95008.00
2023-05-06T11:39:10.845Z,95008.00
2023-05-06T11:40:11.218Z,95010.00
2023-05-06T11:41:10.933Z,95006.00
2023-05-06T11:42:11.005Z,95010.00
2023-05-06T11:43:11.092Z,95004.00
2023-05-06T11:44:11.620Z,95006.00
2023-05-06T11:45:11.158Z,95008.00